Time;durP1;ratioP1;P1;durP2;ratioP2;P2;SDS_P1;SDS_P2;PMS_P1;PMS_P2;Temp;Humidity;BMP_temperature;BMP_pressure;BME280_temperature;BME280_humidity;BME280_pressure;Samples;Min_cycle;Max_cycle;Signal;HPM_P1;HPM_P2
2020/12/21 00:01:58;;;;;;;8.50;2.55;;;9.90;85.40;;;;;;5095079;28;20030;-67
2020/12/21 00:04:24;;;;;;;3.92;2.10;;;9.80;85.20;;;;;;5096006;28;20032;-67
2020/12/21 00:06:52;;;;;;;3.80;1.67;;;9.90;85.20;;;;;;5096009;28;20028;-67
2020/12/21 00:09:18;;;;;;;6.93;1.55;;;9.90;85.20;;;;;;5094953;28;20127;-67
2020/12/21 00:11:43;;;;;;;4.55;1.65;;;9.80;85.20;;;;;;5095917;28;20116;-67
2020/12/21 00:14:09;;;;;;;7.95;2.05;;;9.90;85.10;;;;;;5095733;28;20514;-67
2020/12/21 00:16:36;;;;;;;4.28;1.88;;;9.80;85.00;;;;;;5095050;28;20049;-67
2020/12/21 00:19:02;;;;;;;4.00;1.92;;;9.80;85.00;;;;;;5095596;28;20028;-67
2020/12/21 00:21:28;;;;;;;7.55;2.33;;;9.80;85.00;;;;;;5094999;28;20032;-67
2020/12/21 00:23:53;;;;;;;8.35;2.90;;;9.80;85.00;;;;;;5095822;28;20410;-67
2020/12/21 00:26:19;;;;;;;4.78;2.40;;;9.80;85.00;;;;;;5095239;28;20380;-67
2020/12/21 00:28:44;;;;;;;5.22;2.15;;;9.80;85.10;;;;;;5094646;28;20044;-67
2020/12/21 00:31:10;;;;;;;6.50;2.28;;;9.80;85.10;;;;;;5095499;28;20016;-67
2020/12/21 00:33:36;;;;;;;2.35;1.20;;;9.70;85.00;;;;;;5095279;28;20540;-67
2020/12/21 00:36:01;;;;;;;1.80;1.33;;;9.80;85.10;;;;;;5094218;28;20028;-67
2020/12/21 00:38:27;;;;;;;4.32;1.90;;;9.80;85.10;;;;;;5095593;28;20028;-67
2020/12/21 00:40:53;;;;;;;4.00;1.77;;;9.70;85.00;;;;;;5095424;28;20429;-67
2020/12/21 00:43:19;;;;;;;5.20;2.00;;;9.70;84.90;;;;;;5094599;28;20039;-67
2020/12/21 00:45:44;;;;;;;4.65;1.65;;;9.70;84.90;;;;;;5095098;28;20054;-67
2020/12/21 00:48:10;;;;;;;2.72;1.65;;;9.70;84.90;;;;;;5095110;28;20085;-67
2020/12/21 00:50:36;;;;;;;7.13;1.90;;;9.80;85.00;;;;;;5093156;28;20066;-67
2020/12/21 00:53:02;;;;;;;7.53;2.10;;;9.70;84.90;;;;;;5093577;28;20516;-67
2020/12/21 00:55:27;;;;;;;5.57;1.98;;;9.70;84.90;;;;;;5095137;28;20038;-67
2020/12/21 00:57:53;;;;;;;5.32;2.22;;;9.70;85.00;;;;;;5094396;28;20521;-67
2020/12/21 01:00:19;;;;;;;11.82;2.58;;;9.80;85.10;;;;;;5094995;28;20032;-67
2020/12/21 01:02:45;;;;;;;10.82;2.35;;;9.70;85.00;;;;;;5094808;28;20024;-67
2020/12/21 01:05:10;;;;;;;6.25;1.98;;;9.70;85.00;;;;;;5094115;28;20036;-67
2020/12/21 01:07:37;;;;;;;3.75;2.03;;;9.70;85.10;;;;;;5094635;28;20102;-67
2020/12/21 01:10:03;;;;;;;8.88;2.78;;;9.70;85.10;;;;;;5094757;28;20042;-67
2020/12/21 01:12:28;;;;;;;3.97;1.85;;;9.80;85.00;;;;;;5094020;28;20031;-67
2020/12/21 01:14:54;;;;;;;5.32;2.25;;;9.80;84.90;;;;;;5094622;28;20395;-67
2020/12/21 01:17:19;;;;;;;7.05;1.73;;;9.70;84.80;;;;;;5094511;28;20027;-67
2020/12/21 01:19:45;;;;;;;6.97;1.88;;;9.80;84.80;;;;;;5093692;28;20067;-67
2020/12/21 01:22:11;;;;;;;4.63;1.92;;;9.80;84.90;;;;;;5094432;28;20055;-67
2020/12/21 01:24:40;;;;;;;3.30;2.03;;;9.70;84.80;;;;;;5094626;28;20471;-67
2020/12/21 01:27:07;;;;;;;6.78;1.90;;;9.80;84.70;;;;;;5094243;28;20044;-67
2020/12/21 01:29:32;;;;;;;2.63;1.42;;;9.80;84.60;;;;;;5094271;28;20072;-67
2020/12/21 01:31:58;;;;;;;4.63;1.58;;;9.80;84.50;;;;;;5093385;28;20180;-67
2020/12/21 01:34:23;;;;;;;9.15;1.77;;;9.70;84.50;;;;;;5094290;28;20169;-67
2020/12/21 01:36:49;;;;;;;6.07;2.17;;;9.80;84.60;;;;;;5094034;28;20459;-67
2020/12/21 01:39:15;;;;;;;8.15;2.33;;;9.80;84.60;;;;;;5093521;28;20028;-67
2020/12/21 01:41:40;;;;;;;25.33;2.45;;;9.80;84.50;;;;;;5094217;28;20032;-67
2020/12/21 01:44:06;;;;;;;11.10;2.95;;;9.90;84.50;;;;;;5093811;28;20032;-67
2020/12/21 01:46:31;;;;;;;13.15;2.70;;;9.90;84.40;;;;;;5092654;28;20020;-67
2020/12/21 01:48:57;;;;;;;8.63;2.40;;;10.00;84.40;;;;;;5093969;28;20421;-67
2020/12/21 01:51:27;;;;;;;5.47;2.88;;;10.00;84.10;;;;;;5093811;28;20055;-67
2020/12/21 01:53:54;;;;;;;2.38;1.20;;;10.10;84.00;;;;;;5091927;28;20036;-67
2020/12/21 01:56:20;;;;;;;9.68;3.30;;;10.10;83.80;;;;;;5093925;28;20058;-67
2020/12/21 01:58:47;;;;;;;6.07;2.50;;;10.10;83.60;;;;;;5093866;28;20028;-67
2020/12/21 02:01:14;;;;;;;8.25;3.58;;;10.10;83.50;;;;;;5093021;28;20067;-67
2020/12/21 02:03:43;;;;;;;14.10;3.30;;;10.10;83.40;;;;;;5093748;28;20081;-67
2020/12/21 02:06:10;;;;;;;4.68;2.20;;;10.10;83.10;;;;;;5093815;28;20073;-67
2020/12/21 02:08:36;;;;;;;4.75;1.48;;;10.10;83.10;;;;;;5093021;28;20108;-67
2020/12/21 02:11:03;;;;;;;6.78;2.40;;;10.10;82.90;;;;;;5093673;28;20464;-67
2020/12/21 02:13:29;;;;;;;6.35;2.10;;;10.00;82.70;;;;;;5093570;28;20036;-67
2020/12/21 02:15:55;;;;;;;7.57;2.97;;;10.00;82.80;;;;;;5093019;28;20035;-67
2020/12/21 02:18:21;;;;;;;8.30;2.72;;;10.00;82.90;;;;;;5093472;28;20024;-67
2020/12/21 02:20:47;;;;;;;2.83;1.45;;;10.00;82.80;;;;;;5093736;28;20035;-67
2020/12/21 02:23:13;;;;;;;4.32;1.85;;;10.00;82.80;;;;;;5093007;28;20030;-67
2020/12/21 02:25:38;;;;;;;3.67;1.40;;;10.00;82.80;;;;;;5093507;28;20398;-67
2020/12/21 02:28:04;;;;;;;1.38;0.93;;;10.00;82.90;;;;;;5092633;28;20028;-67
2020/12/21 02:30:30;;;;;;;8.88;2.35;;;10.00;82.80;;;;;;5093341;28;20032;-67
2020/12/21 02:32:55;;;;;;;9.98;1.95;;;10.00;82.60;;;;;;5093267;28;20048;-67
2020/12/21 02:35:21;;;;;;;3.80;2.00;;;9.90;82.40;;;;;;5092537;28;20039;-67
2020/12/21 02:37:47;;;;;;;2.47;1.42;;;9.90;82.40;;;;;;5093527;28;20032;-67
2020/12/21 02:40:13;;;;;;;6.63;1.90;;;9.90;82.40;;;;;;5093390;28;20027;-67
2020/12/21 02:42:39;;;;;;;5.25;1.65;;;9.80;82.40;;;;;;5092872;28;20364;-67
2020/12/21 02:45:05;;;;;;;2.50;1.55;;;9.90;82.50;;;;;;5093400;28;20031;-67
2020/12/21 02:47:31;;;;;;;12.40;2.33;;;9.80;82.30;;;;;;5093087;28;20028;-67
2020/12/21 02:49:56;;;;;;;7.53;2.80;;;9.70;82.30;;;;;;5092440;28;20119;-67
2020/12/21 02:52:22;;;;;;;1.85;1.05;;;9.80;82.40;;;;;;5093450;28;20035;-67
2020/12/21 02:54:48;;;;;;;5.38;2.13;;;9.70;82.60;;;;;;5093421;28;20093;-67
2020/12/21 02:57:14;;;;;;;14.30;3.13;;;9.70;82.60;;;;;;5092513;28;20059;-67
2020/12/21 02:59:41;;;;;;;8.02;2.60;;;9.70;82.60;;;;;;5097091;28;20036;-67
2020/12/21 03:02:06;;;;;;;6.63;1.58;;;9.70;82.60;;;;;;5097202;28;20024;-67
2020/12/21 03:04:33;;;;;;;10.05;2.85;;;9.70;82.60;;;;;;5096527;28;20559;-67
2020/12/21 03:07:00;;;;;;;6.80;1.73;;;9.70;82.40;;;;;;5097224;28;20024;-67
2020/12/21 03:09:26;;;;;;;6.18;2.75;;;9.70;82.50;;;;;;5097110;28;20039;-67
2020/12/21 03:11:51;;;;;;;12.13;2.65;;;9.70;82.40;;;;;;5096097;28;20028;-67
2020/12/21 03:14:17;;;;;;;3.13;1.38;;;9.70;82.20;;;;;;5096841;28;20074;-67
2020/12/21 03:16:43;;;;;;;7.20;1.52;;;9.70;82.10;;;;;;5096789;28;20024;-67
2020/12/21 03:19:08;;;;;;;3.40;1.88;;;9.70;81.80;;;;;;5096058;28;20024;-67
2020/12/21 03:21:34;;;;;;;1.88;1.38;;;9.60;81.70;;;;;;5096690;28;20024;-67
2020/12/21 03:23:59;;;;;;;3.30;1.77;;;9.60;81.90;;;;;;5096815;28;20058;-67
2020/12/21 03:26:26;;;;;;;5.25;1.98;;;9.60;82.00;;;;;;5095980;28;20027;-67
2020/12/21 03:28:51;;;;;;;1.98;1.40;;;9.50;81.90;;;;;;5096461;28;20062;-68
2020/12/21 03:31:17;;;;;;;3.72;1.33;;;9.50;82.00;;;;;;5095974;28;20554;-68
2020/12/21 03:33:43;;;;;;;12.50;3.03;;;9.50;82.00;;;;;;5096164;28;20039;-68
2020/12/21 03:36:08;;;;;;;9.07;3.50;;;9.50;82.00;;;;;;5096700;28;20024;-68
2020/12/21 03:38:35;;;;;;;7.70;2.40;;;9.40;82.00;;;;;;5095911;28;20112;-68
2020/12/21 03:41:00;;;;;;;13.35;1.90;;;9.40;82.00;;;;;;5096430;28;20081;-67
2020/12/21 03:43:26;;;;;;;12.95;3.08;;;9.40;82.00;;;;;;5096451;28;20032;-67
2020/12/21 03:45:52;;;;;;;10.43;1.55;;;9.40;81.90;;;;;;5095755;28;20032;-67
2020/12/21 03:48:17;;;;;;;9.43;4.32;;;9.30;82.00;;;;;;5096267;28;20071;-67
2020/12/21 03:50:43;;;;;;;3.65;1.80;;;9.30;82.00;;;;;;5096228;28;20493;-67
2020/12/21 03:53:09;;;;;;;6.57;1.90;;;9.30;82.10;;;;;;5095706;28;20089;-67
2020/12/21 03:55:35;;;;;;;4.28;1.05;;;9.30;82.20;;;;;;5096007;28;20032;-67
2020/12/21 03:58:00;;;;;;;7.35;1.75;;;9.30;82.10;;;;;;5096133;28;20020;-67
2020/12/21 04:00:26;;;;;;;13.63;3.72;;;9.20;81.90;;;;;;5095288;28;20035;-67
2020/12/21 04:02:52;;;;;;;3.47;1.33;;;9.20;82.00;;;;;;5096092;28;20028;-67
2020/12/21 04:05:17;;;;;;;2.88;1.63;;;9.20;82.00;;;;;;5096140;28;20043;-67
2020/12/21 04:07:43;;;;;;;11.07;3.42;;;9.20;82.00;;;;;;5095336;28;20031;-67
2020/12/21 04:10:08;;;;;;;5.53;1.20;;;9.10;82.10;;;;;;5094638;28;20123;-67
2020/12/21 04:12:35;;;;;;;3.03;1.80;;;9.00;82.10;;;;;;5095621;28;20039;-68
2020/12/21 04:15:05;;;;;;;7.93;2.53;;;9.10;82.40;;;;;;5094930;28;20043;-67
2020/12/21 04:17:31;;;;;;;6.22;1.67;;;9.00;82.50;;;;;;5095815;28;20087;-67
2020/12/21 04:19:57;;;;;;;6.88;2.55;;;9.00;82.50;;;;;;5095640;28;20081;-68
2020/12/21 04:22:22;;;;;;;6.15;1.90;;;9.00;82.60;;;;;;5095061;28;20031;-67
2020/12/21 04:24:48;;;;;;;1.90;1.45;;;8.90;82.60;;;;;;5095748;28;20048;-67
2020/12/21 04:27:14;;;;;;;5.72;2.45;;;8.90;82.60;;;;;;5095551;28;20491;-67
2020/12/21 04:29:39;;;;;;;3.00;1.00;;;8.90;82.60;;;;;;5094514;28;20462;-68
2020/12/21 04:32:05;;;;;;;6.55;2.20;;;8.90;82.70;;;;;;5095606;28;20028;-67
2020/12/21 04:34:31;;;;;;;13.48;2.78;;;8.90;82.60;;;;;;5095220;28;20126;-68
2020/12/21 04:36:56;;;;;;;7.50;2.42;;;8.80;82.60;;;;;;5094892;28;20024;-67
2020/12/21 04:39:22;;;;;;;3.05;1.98;;;8.90;82.70;;;;;;5095318;28;20406;-67
2020/12/21 04:41:55;;;;;;;2.20;1.45;;;8.80;82.60;;;;;;5094591;28;20391;-67
2020/12/21 04:44:22;;;;;;;5.07;1.75;;;8.90;82.60;;;;;;5095217;28;20038;-67
2020/12/21 04:46:51;;;;;;;1.65;1.27;;;8.80;82.40;;;;;;5095225;28;20040;-67
2020/12/21 04:49:17;;;;;;;2.75;2.00;;;8.80;82.40;;;;;;5094441;28;20028;-67
2020/12/21 04:51:46;;;;;;;7.50;2.72;;;8.80;82.40;;;;;;5095047;28;20496;-67
2020/12/21 04:54:13;;;;;;;3.08;1.55;;;8.80;82.30;;;;;;5094955;28;20043;-67
2020/12/21 04:56:40;;;;;;;3.83;1.85;;;8.80;82.40;;;;;;5094282;28;20036;-67
2020/12/21 04:59:05;;;;;;;4.03;1.40;;;8.80;82.40;;;;;;5095046;28;20024;-67
2020/12/21 05:01:31;;;;;;;3.92;2.35;;;8.80;82.50;;;;;;5094961;28;20031;-67
2020/12/21 05:03:57;;;;;;;6.18;1.60;;;8.80;82.50;;;;;;5094041;28;20364;-67
2020/12/21 05:06:23;;;;;;;7.28;2.58;;;8.80;82.40;;;;;;5094630;28;20039;-67
2020/12/21 05:09:03;;;;;;;10.70;2.70;;;8.80;82.40;;;;;;5094615;28;20024;-67
2020/12/21 05:11:29;;;;;;;9.38;3.08;;;8.80;82.30;;;;;;5094212;28;20032;-67
2020/12/21 05:14:04;;;;;;;11.23;3.42;;;8.90;82.20;;;;;;5094677;28;20116;-67
2020/12/21 05:16:30;;;;;;;9.00;3.08;;;8.80;82.10;;;;;;5094708;28;20028;-67
2020/12/21 05:18:56;;;;;;;4.65;1.70;;;8.80;82.00;;;;;;5093979;28;20028;-67
2020/12/21 05:21:29;;;;;;;6.70;1.92;;;8.80;82.00;;;;;;5093636;28;20020;-67
2020/12/21 05:24:02;;;;;;;8.85;2.42;;;8.90;82.00;;;;;;5093947;28;20064;-67
2020/12/21 05:26:32;;;;;;;5.97;2.73;;;8.80;81.80;;;;;;5094575;28;20031;-67
2020/12/21 05:28:59;;;;;;;4.07;1.92;;;8.80;81.80;;;;;;5094209;28;20093;-67
2020/12/21 05:31:25;;;;;;;10.00;3.60;;;8.80;81.80;;;;;;5093609;28;20025;-67
2020/12/21 05:33:52;;;;;;;13.88;3.50;;;8.80;81.80;;;;;;5094119;28;20040;-67
2020/12/21 05:36:20;;;;;;;8.70;2.45;;;8.80;81.80;;;;;;5094141;28;20032;-67
2020/12/21 05:38:59;;;;;;;4.88;1.60;;;8.80;81.70;;;;;;5093704;28;20475;-67
2020/12/21 05:41:25;;;;;;;8.93;3.10;;;8.80;81.70;;;;;;5094090;28;20089;-67
2020/12/21 05:43:52;;;;;;;17.05;3.97;;;8.80;81.60;;;;;;5094165;28;20032;-67
2020/12/21 05:46:23;;;;;;;14.15;3.70;;;8.80;81.60;;;;;;5093364;28;20039;-67
2020/12/21 05:48:56;;;;;;;9.00;2.85;;;8.80;81.60;;;;;;5093757;28;20039;-67
2020/12/21 05:51:27;;;;;;;2.67;1.50;;;8.80;81.60;;;;;;5094095;28;20034;-67
2020/12/21 05:53:54;;;;;;;9.20;2.35;;;8.80;81.50;;;;;;5093462;28;20028;-67
2020/12/21 05:56:21;;;;;;;7.70;2.28;;;8.80;81.50;;;;;;5094026;28;20032;-67
2020/12/21 05:58:48;;;;;;;8.60;3.53;;;8.80;81.50;;;;;;5093915;28;20051;-66
2020/12/21 06:01:14;;;;;;;12.20;3.60;;;8.80;81.40;;;;;;5092979;28;20028;-67
2020/12/21 06:03:41;;;;;;;12.98;3.20;;;8.80;81.30;;;;;;5093885;28;20039;-66
2020/12/21 06:06:15;;;;;;;13.60;3.67;;;8.80;81.20;;;;;;5093180;28;20070;-66
2020/12/21 06:08:42;;;;;;;15.10;3.58;;;8.80;81.20;;;;;;5093681;28;20039;-67
2020/12/21 06:11:13;;;;;;;13.65;3.75;;;8.80;81.10;;;;;;5093892;28;20102;-66
2020/12/21 06:13:49;;;;;;;10.65;3.13;;;8.80;81.10;;;;;;5092777;28;20039;-71
2020/12/21 06:16:16;;;;;;;9.07;3.15;;;8.80;81.10;;;;;;5093768;28;20039;-67
2020/12/21 06:18:42;;;;;;;9.13;3.40;;;8.90;81.00;;;;;;5093634;28;20040;-68
2020/12/21 06:21:08;;;;;;;7.53;3.00;;;8.80;81.00;;;;;;5092808;28;20040;-72
2020/12/21 06:23:39;;;;;;;6.07;2.65;;;8.80;81.00;;;;;;5093362;28;20536;-68
2020/12/21 06:26:11;;;;;;;11.27;4.13;;;8.80;80.90;;;;;;5093500;28;20114;-68
2020/12/21 06:28:38;;;;;;;10.30;3.63;;;8.80;81.50;;;;;;5092830;28;20040;-68
2020/12/21 06:31:19;;;;;;;4.53;2.03;;;8.80;80.70;;;;;;5093339;28;20036;-68
2020/12/21 06:33:46;;;;;;;8.27;2.03;;;8.80;80.80;;;;;;5097798;28;20169;-68
2020/12/21 06:36:12;;;;;;;4.07;1.83;;;8.80;80.80;;;;;;5099457;28;20036;-67
2020/12/21 06:38:46;;;;;;;5.90;2.80;;;8.70;80.70;;;;;;5100238;28;20039;-67
2020/12/21 06:41:16;;;;;;;7.65;2.88;;;8.70;80.80;;;;;;5099348;28;20498;-68
2020/12/21 06:43:54;;;;;;;8.75;3.45;;;8.80;80.80;;;;;;5100100;28;20028;-68
2020/12/21 06:46:20;;;;;;;6.00;3.10;;;8.70;80.80;;;;;;5100292;28;20063;-68
2020/12/21 06:49:03;;;;;;;9.77;2.30;;;8.70;80.70;;;;;;5099314;28;20039;-68
2020/12/21 06:51:29;;;;;;;8.55;3.33;;;8.70;80.70;;;;;;5100257;28;20027;-68
2020/12/21 06:54:04;;;;;;;18.33;3.33;;;8.70;80.60;;;;;;5100212;28;20031;-68
2020/12/21 06:56:30;;;;;;;10.18;3.45;;;8.70;81.20;;;;;;5099215;28;20496;-68
2020/12/21 06:58:57;;;;;;;17.10;3.92;;;8.70;80.60;;;;;;5107938;28;20094;-68
2020/12/21 07:01:24;;;;;;;11.10;3.67;;;8.70;80.70;;;;;;5104289;28;20047;-68
2020/12/21 07:03:50;;;;;;;12.25;3.95;;;8.70;80.80;;;;;;5098947;28;20036;-67
2020/12/21 07:06:16;;;;;;;9.35;3.30;;;8.70;80.80;;;;;;5104618;28;20034;-68
2020/12/21 07:08:43;;;;;;;13.43;4.15;;;8.70;80.70;;;;;;5120069;27;20040;-70
2020/12/21 07:11:21;;;;;;;16.35;3.83;;;8.70;80.70;;;;;;5119470;27;20016;-68
2020/12/21 07:13:49;;;;;;;9.55;3.75;;;8.70;80.60;;;;;;5105200;27;20032;-68
2020/12/21 07:16:17;;;;;;;9.23;3.13;;;8.80;80.50;;;;;;5099589;28;20472;-68
2020/12/21 07:18:47;;;;;;;10.20;3.45;;;8.80;80.40;;;;;;5099106;28;20027;-68
2020/12/21 07:21:13;;;;;;;14.63;3.72;;;8.80;80.40;;;;;;5099921;28;20078;-68
2020/12/21 07:23:40;;;;;;;13.95;4.53;;;8.80;80.30;;;;;;5099141;28;20035;-68
2020/12/21 07:26:07;;;;;;;13.93;4.75;;;8.80;80.20;;;;;;5099700;28;20032;-68
2020/12/21 07:28:33;;;;;;;17.10;3.60;;;8.80;80.20;;;;;;5099635;28;20036;-68
2020/12/21 07:31:17;;;;;;;16.27;3.47;;;8.80;80.10;;;;;;5098901;28;20039;-68
2020/12/21 07:33:58;;;;;;;9.50;3.47;;;8.80;80.10;;;;;;5096691;28;20032;-68
2020/12/21 07:36:28;;;;;;;8.80;3.45;;;8.80;80.00;;;;;;5098007;28;20077;-68
2020/12/21 07:39:13;;;;;;;12.40;3.88;;;8.80;80.00;;;;;;5097471;28;20030;-68
2020/12/21 07:41:44;;;;;;;11.75;3.65;;;8.80;79.90;;;;;;5097383;28;20069;-68
2020/12/21 07:44:24;;;;;;;8.63;3.40;;;8.80;79.80;;;;;;5093899;28;20028;-68
2020/12/21 07:47:09;;;;;;;10.02;3.50;;;8.70;79.80;;;;;;5094167;28;20103;-68
2020/12/21 07:49:36;;;;;;;13.85;4.00;;;8.70;79.80;;;;;;5093166;28;20118;-69
2020/12/21 07:52:05;;;;;;;13.73;4.50;;;8.70;79.90;;;;;;5094081;28;20024;-71
2020/12/21 07:54:37;;;;;;;12.80;3.08;;;8.70;80.00;;;;;;5094758;28;20024;-70
2020/12/21 07:57:05;;;;;;;12.40;4.40;;;8.70;80.30;;;;;;5094685;28;20481;-76
2020/12/21 07:59:30;;;;;;;11.77;4.00;;;8.70;80.40;;;;;;5094074;28;20024;-73
2020/12/21 08:02:02;;;;;;;5.53;3.25;;;8.70;80.20;;;;;;5094414;28;20137;-68
2020/12/21 08:04:28;;;;;;;10.35;3.15;;;8.70;80.10;;;;;;5092034;28;20032;-68
2020/12/21 08:07:06;;;;;;;12.75;4.15;;;8.70;80.00;;;;;;5093968;28;20103;-71
2020/12/21 08:09:32;;;;;;;8.45;3.50;;;8.80;80.00;;;;;;5092470;28;20042;-69
2020/12/21 08:11:59;;;;;;;16.50;3.15;;;8.80;79.80;;;;;;5094162;28;20016;-67
2020/12/21 08:14:24;;;;;;;8.25;3.00;;;8.80;79.80;;;;;;5095015;28;20436;-68
2020/12/21 08:16:50;;;;;;;13.63;3.85;;;8.80;79.80;;;;;;5095673;28;20027;-67
2020/12/21 08:19:22;;;;;;;11.98;4.30;;;8.80;79.80;;;;;;5088592;28;20471;-72
2020/12/21 08:21:49;;;;;;;22.17;4.50;;;8.80;79.80;;;;;;5073581;28;20021;-72
2020/12/21 08:24:15;;;;;;;7.65;3.90;;;8.80;79.80;;;;;;5087683;28;20098;-71
2020/12/21 08:26:41;;;;;;;17.58;4.15;;;8.80;79.80;;;;;;5092183;28;20127;-71
2020/12/21 08:29:07;;;;;;;13.93;4.15;;;8.80;79.90;;;;;;5090062;28;20119;-72
2020/12/21 08:31:42;;;;;;;6.82;2.67;;;8.80;79.90;;;;;;5094269;28;20047;-69
2020/12/21 08:34:08;;;;;;;5.70;3.35;;;8.90;80.00;;;;;;5093531;28;20460;-68
2020/12/21 08:36:38;;;;;;;15.35;4.63;;;8.90;80.00;;;;;;5093526;28;20063;-68
2020/12/21 08:39:12;;;;;;;6.78;3.08;;;8.90;80.10;;;;;;5094857;28;20127;-68
2020/12/21 08:41:53;;;;;;;8.02;4.72;;;8.90;79.80;;;;;;5093159;28;20032;-68
2020/12/21 08:44:26;;;;;;;6.60;3.08;;;8.90;80.00;;;;;;5094435;28;20029;-68
2020/12/21 08:46:59;;;;;;;17.77;5.53;;;8.90;79.80;;;;;;5094282;28;20468;-69
2020/12/21 08:49:28;;;;;;;11.07;4.30;;;8.90;80.00;;;;;;5092919;28;20040;-68
2020/12/21 08:51:59;;;;;;;9.77;4.18;;;8.90;79.90;;;;;;5093316;28;20028;-69
2020/12/21 08:54:25;;;;;;;11.80;4.30;;;8.90;80.10;;;;;;5093734;28;20032;-68
2020/12/21 08:56:52;;;;;;;4.97;2.67;;;8.90;80.00;;;;;;5093223;28;20025;-68
2020/12/21 08:59:18;;;;;;;19.27;5.43;;;8.90;79.90;;;;;;5093885;28;20043;-68
2020/12/21 09:01:44;;;;;;;15.63;2.67;;;8.90;79.90;;;;;;5093886;28;20028;-67
2020/12/21 09:04:11;;;;;;;7.38;3.30;;;8.90;79.70;;;;;;5092982;28;20085;-68
2020/12/21 09:06:36;;;;;;;8.85;3.78;;;9.00;79.60;;;;;;5092683;28;20028;-69
2020/12/21 09:09:03;;;;;;;9.05;3.88;;;9.00;79.50;;;;;;5092960;28;20055;-77
2020/12/21 09:11:29;;;;;;;18.70;4.07;;;9.00;79.50;;;;;;5093243;28;20467;-68
2020/12/21 09:13:55;;;;;;;6.45;2.67;;;9.00;79.40;;;;;;5093573;28;20050;-68
2020/12/21 09:16:24;;;;;;;10.07;3.38;;;9.00;79.50;;;;;;5092427;28;20032;-73
2020/12/21 09:18:54;;;;;;;7.65;3.35;;;9.00;79.40;;;;;;5093609;28;20052;-68
2020/12/21 09:21:27;;;;;;;8.32;3.08;;;9.00;79.50;;;;;;5092986;28;20717;-68
2020/12/21 09:23:59;;;;;;;3.95;2.10;;;9.10;79.30;;;;;;5092783;28;20487;-69
2020/12/21 09:26:26;;;;;;;8.30;3.20;;;9.00;79.40;;;;;;5093220;28;20040;-69
2020/12/21 09:28:52;;;;;;;11.10;4.10;;;9.00;79.30;;;;;;5093265;28;20097;-69
2020/12/21 09:31:19;;;;;;;8.85;4.32;;;9.10;79.50;;;;;;5092641;28;20040;-69
2020/12/21 09:33:47;;;;;;;9.48;3.15;;;9.10;79.70;;;;;;5092682;28;20169;-69
2020/12/21 09:36:14;;;;;;;11.15;3.58;;;9.10;79.60;;;;;;5093091;28;20028;-69
2020/12/21 09:38:40;;;;;;;7.38;2.90;;;9.10;79.50;;;;;;5092121;28;20068;-69
2020/12/21 09:41:06;;;;;;;11.73;3.35;;;9.20;80.10;;;;;;5092776;28;20036;-68
2020/12/21 09:43:32;;;;;;;8.82;2.80;;;9.20;79.50;;;;;;5091339;28;20032;-67
2020/12/21 09:45:58;;;;;;;14.02;3.30;;;9.20;79.50;;;;;;5090003;28;20039;-68
2020/12/21 09:48:24;;;;;;;10.57;3.17;;;9.20;79.40;;;;;;5092667;28;20726;-67
2020/12/21 09:50:49;;;;;;;9.85;3.63;;;9.20;80.00;;;;;;5092325;28;20073;-70
2020/12/21 09:53:16;;;;;;;8.82;3.33;;;9.20;79.40;;;;;;5091925;28;20378;-70
2020/12/21 09:55:42;;;;;;;5.30;2.17;;;9.20;79.40;;;;;;5092852;28;20040;-66
2020/12/21 09:58:08;;;;;;;5.00;2.22;;;9.20;79.40;;;;;;5091802;28;20483;-68
2020/12/21 10:00:34;;;;;;;4.10;1.58;;;9.20;79.20;;;;;;5092327;28;20039;-70
2020/12/21 10:02:59;;;;;;;13.10;3.25;;;9.20;79.20;;;;;;5092315;28;20042;-69
2020/12/21 10:05:25;;;;;;;6.68;2.33;;;9.20;79.20;;;;;;5090998;28;20027;-68
2020/12/21 10:07:51;;;;;;;11.80;3.10;;;9.20;79.30;;;;;;5091374;28;20036;-68
2020/12/21 10:10:16;;;;;;;8.85;2.63;;;9.10;79.30;;;;;;5092058;28;20039;-70
2020/12/21 10:12:42;;;;;;;8.52;2.65;;;9.20;79.40;;;;;;5102660;28;20072;-71
2020/12/21 10:15:08;;;;;;;7.03;2.88;;;9.20;79.40;;;;;;5092910;28;20394;-69
2020/12/21 10:17:33;;;;;;;8.23;2.70;;;9.20;79.50;;;;;;5092145;28;20033;-67
2020/12/21 10:19:59;;;;;;;9.63;3.10;;;9.20;79.50;;;;;;5090318;28;20035;-65
2020/12/21 10:22:25;;;;;;;15.70;2.97;;;9.20;79.70;;;;;;5092146;28;20047;-69
2020/12/21 10:24:50;;;;;;;11.95;2.90;;;9.30;79.70;;;;;;5092325;28;20427;-68
2020/12/21 10:27:16;;;;;;;8.35;2.90;;;9.30;79.80;;;;;;5091864;28;20410;-71
2020/12/21 10:29:41;;;;;;;8.43;3.05;;;9.30;79.80;;;;;;5091746;28;20042;-72
2020/12/21 10:32:07;;;;;;;11.10;2.47;;;9.30;79.80;;;;;;5092493;28;20032;-71
2020/12/21 10:34:33;;;;;;;11.10;2.25;;;9.40;79.80;;;;;;5091601;28;20043;-76
2020/12/21 10:36:59;;;;;;;11.55;2.22;;;9.40;79.90;;;;;;5091854;28;20356;-70
2020/12/21 10:39:24;;;;;;;8.77;2.42;;;9.40;79.90;;;;;;5090726;28;20112;-69
2020/12/21 10:41:50;;;;;;;12.40;3.30;;;9.40;80.10;;;;;;5091681;28;20042;-69
2020/12/21 10:44:16;;;;;;;7.35;2.20;;;9.40;80.20;;;;;;5092500;28;20039;-69
2020/12/21 10:46:42;;;;;;;9.90;1.90;;;9.40;80.10;;;;;;5092198;28;20032;-69
2020/12/21 10:49:09;;;;;;;10.30;2.65;;;9.50;80.10;;;;;;5091801;28;20044;-69
2020/12/21 10:51:34;;;;;;;9.40;2.42;;;9.50;80.10;;;;;;5092518;28;20332;-70
2020/12/21 10:54:00;;;;;;;2.92;1.70;;;9.50;80.10;;;;;;5092283;28;20036;-68
2020/12/21 10:56:27;;;;;;;4.53;1.45;;;9.50;79.90;;;;;;5091042;28;20032;-69
2020/12/21 10:58:54;;;;;;;9.48;2.72;;;9.50;79.60;;;;;;5092556;28;20039;-69
2020/12/21 11:01:20;;;;;;;10.80;2.42;;;9.50;79.70;;;;;;5092486;28;20482;-69
2020/12/21 11:03:46;;;;;;;14.05;2.63;;;9.50;79.70;;;;;;5091460;28;20033;-69
2020/12/21 11:06:19;;;;;;;13.98;2.80;;;9.50;79.90;;;;;;5092396;28;20395;-69
2020/12/21 11:08:45;;;;;;;8.15;2.17;;;9.50;80.20;;;;;;5091317;28;20043;-69
2020/12/21 11:11:11;;;;;;;12.65;2.38;;;9.60;79.80;;;;;;5092529;28;20066;-70
2020/12/21 11:13:39;;;;;;;9.85;1.10;;;9.50;79.80;;;;;;5091984;28;20553;-70
2020/12/21 11:16:04;;;;;;;10.30;1.90;;;9.60;79.60;;;;;;5091839;28;20036;-69
2020/12/21 11:18:30;;;;;;;1.88;0.52;;;9.60;79.50;;;;;;5092034;28;20081;-69
2020/12/21 11:20:58;;;;;;;14.55;2.25;;;9.50;79.30;;;;;;5094527;28;20031;-70
2020/12/21 11:23:24;;;;;;;6.22;1.88;;;9.50;79.40;;;;;;5093665;28;20090;-70
2020/12/21 11:25:50;;;;;;;5.50;2.03;;;9.50;79.40;;;;;;5094084;28;20479;-70
2020/12/21 11:28:15;;;;;;;3.00;0.98;;;9.50;79.60;;;;;;5095727;28;20031;-67
2020/12/21 11:30:41;;;;;;;3.33;1.23;;;9.40;79.90;;;;;;5095237;28;20058;-69
2020/12/21 11:33:06;;;;;;;5.82;2.22;;;9.50;80.20;;;;;;5095659;28;20050;-69
2020/12/21 11:35:32;;;;;;;7.07;2.58;;;9.40;80.60;;;;;;5095164;28;20048;-72
2020/12/21 11:37:58;;;;;;;6.30;1.20;;;9.30;80.80;;;;;;5094969;28;20028;-70
2020/12/21 11:40:24;;;;;;;3.42;1.40;;;9.30;81.10;;;;;;5095476;28;20032;-70
2020/12/21 11:42:49;;;;;;;3.60;1.70;;;9.30;81.30;;;;;;5095709;28;20152;-70
2020/12/21 11:45:15;;;;;;;4.97;1.52;;;9.30;81.50;;;;;;5077230;28;20028;-68
2020/12/21 11:47:41;;;;;;;6.90;1.30;;;9.30;81.70;;;;;;5074752;28;20036;-66
2020/12/21 11:50:06;;;;;;;5.50;1.42;;;9.30;81.90;;;;;;5074642;28;20029;-67
2020/12/21 11:52:32;;;;;;;2.47;1.25;;;9.30;82.00;;;;;;5073944;28;20055;-67
2020/12/21 11:54:58;;;;;;;3.40;1.80;;;9.30;82.00;;;;;;5074893;28;20036;-67
2020/12/21 11:57:26;;;;;;;8.20;1.83;;;9.40;82.80;;;;;;5074542;28;20029;-65
2020/12/21 11:59:52;;;;;;;9.05;2.28;;;9.40;82.20;;;;;;5074337;28;20166;-65
2020/12/21 12:02:18;;;;;;;3.22;1.88;;;9.40;82.30;;;;;;5074784;28;20043;-66
2020/12/21 12:04:44;;;;;;;5.90;1.75;;;9.40;82.30;;;;;;5073407;28;20036;-68
2020/12/21 12:07:09;;;;;;;7.95;2.25;;;9.40;82.40;;;;;;5074988;28;20043;-67
2020/12/21 12:09:35;;;;;;;5.55;2.05;;;9.50;82.50;;;;;;5074977;28;20424;-64
2020/12/21 12:12:01;;;;;;;8.73;2.58;;;9.50;82.50;;;;;;5073617;28;20028;-67
2020/12/21 12:14:27;;;;;;;8.35;2.47;;;9.60;82.50;;;;;;5074703;28;20479;-66
2020/12/21 12:16:55;;;;;;;2.55;1.40;;;9.60;82.50;;;;;;5074859;28;20028;-68
2020/12/21 12:19:24;;;;;;;6.97;2.95;;;9.60;82.40;;;;;;5072923;28;20547;-68
2020/12/21 12:21:50;;;;;;;5.53;2.10;;;9.60;82.40;;;;;;5074729;28;20111;-67
2020/12/21 12:24:16;;;;;;;8.55;2.80;;;9.70;82.40;;;;;;5074465;28;20031;-68
2020/12/21 12:26:42;;;;;;;2.70;1.30;;;9.70;82.50;;;;;;5073510;28;20044;-70
2020/12/21 12:29:07;;;;;;;13.80;2.35;;;9.70;82.40;;;;;;5074576;28;20043;-70
2020/12/21 12:31:33;;;;;;;12.88;2.75;;;9.70;82.40;;;;;;5077148;28;20440;-65
2020/12/21 12:33:59;;;;;;;15.10;3.08;;;9.80;82.40;;;;;;5093793;28;20117;-64
2020/12/21 12:36:26;;;;;;;9.90;2.95;;;9.90;82.50;;;;;;5094452;28;20063;-64
2020/12/21 12:38:53;;;;;;;10.23;3.40;;;9.90;82.50;;;;;;5094404;28;20107;-64
2020/12/21 12:41:19;;;;;;;9.20;3.15;;;9.90;82.30;;;;;;5093666;28;20097;-64
2020/12/21 12:43:45;;;;;;;4.72;1.67;;;10.00;82.30;;;;;;5075313;28;20079;-65
2020/12/21 12:46:11;;;;;;;8.80;2.28;;;10.00;82.20;;;;;;5073397;28;20495;-65
2020/12/21 12:48:37;;;;;;;8.13;2.40;;;10.00;82.00;;;;;;5083872;28;20035;-64
2020/12/21 12:51:03;;;;;;;12.35;3.15;;;10.10;82.10;;;;;;5093947;28;20089;-67
2020/12/21 12:53:29;;;;;;;8.93;2.80;;;10.10;82.10;;;;;;5093670;28;20475;-66